aviador You're here:

LFBG Decoded Metar

COGNAC in FRANCE
Report Time2018-05-28 05:00:00
UTC Time2018-05-28 05:07:23
Flight Rules lifr LIFR
Wind360° at 04 kt
W.Decomp.*RWY 05: 2.6 kt HW 3 kt LCW
RWY 08: 0.8 kt HW 3.9 kt LCW
Visibility5000 m
Phenomena:Mist
Clouds:Overcast 003 Hf
Expected CloudBase > 400 ft AGL from Temp-Dew spread
Ceiling300 ft
Temp16°C (ISA +1)
Dew Point15°C (94% RH)
QNH1014 hPa
Density Alt436 ft
Elevation102 ft
Report Wrong Elevation
Raw Report
METAR LFBG 280500Z AUTO 36004KT 5000 BR OVC003 16/15 Q1014=

Extra information for LFBG:More info

Metar Taf Metar & Taf Last 4 Metars F.Rules Stats Wind Profile Meteogram Temp Stats Airport Information Weather charts Add Link Nearby VenuesMetar ALERT Operation Metar Decoded Social comments